Airfield :
LOGIN :

Register | Disclaimer

   EN    FR    IT 

 










Legend :    VFR   Marginal VFR   IFR   Intensive IFR   Very Intensive IFR
Visi :
Ceiling :
>= 8 km
>= 3000ft
5 to 8 km
1000 to 3000 ft
1500m to 5 km
500 to 1000 ft
800 to 1500m
200 to 500 ft
< 800m
< 200 ft
Symbols :   Thunderstorms  Fog  Heavy snow  Heavy precipitations  Wind > 20 kt
SIGMETs :     Misc.  Thunderstorms  Icing  Turbulence  Mountain Waves  Volcanic Ashes






- Airport Elevation : 2001 ft
- IATA code : MAD


LEMD - Madrid

CURRENT METAR :
  • 232000Z 21016KT 9999 -RA SCT010 BKN014 BKN060 09/08 Q1007 NOSIG

EXPIRED METARs :
  • 231930Z 22012KT 9999 -RA BKN012 BKN050 09/08 Q1008 NOSIG
  • 231900Z 21014KT 9999 BKN010 BKN018 09/07 Q1008 NOSIG
  • 231830Z 21016KT 9999 BKN011 BKN018 09/07 Q1008 NOSIG
  • 231800Z 22016KT 9999 -RA BKN012 BKN018 09/07 Q1009 NOSIG
  • 231730Z 21015KT 9999 -DZ SCT011 BKN018 09/07 Q1009 NOSIG
  • 231700Z 22019KT 9999 -DZ SCT012 BKN024 BKN044 09/07 Q1009 NOSIG

TAF TAF LEMD
Valid from the 23 at 18:00 until the 25 at 00:00 UTC


231700Z 2318/2424 23012KT 9999 SCT016 BKN024 TX12/2415Z TN06/2407Z
PROB40
TEMPO 2318/2324 3000 RA SHRA BKN010 SCT030TCU
PROB40
TEMPO 2318/2320 23020G32KT
PROB40
TEMPO 2320/2418 23016G26KT



MET'MAP, your aeronautical weather chart ! - Copyright ORBIFLY December 2007 - Disclaimer

ORBIFLY MET'MAP TEAM :

Programming & Development : Alexandra Zaïnal
Concept & original design : Baudouin d'Aumeries
Assistance for programming : Marc-Olivier Méhu
Technical & hardware support : Manuel Goepfert

Contact : metmap@orbifly.com




SOURCES & CREDITS :

   NOAA